x

Tanner Bank - 121nm West Of San Diego, Ca (46047) Weather Station

5:50 - Wed 1st Apr 2015 All times are PDT. -7 hours from GMT.

  • Wind
    29mph, 34mph gusts
  • Sea Temp 61°f
  • Luft Temp 60°f
  • Sea Pressure 1014.8mb
  • Tanner Bank - 121nm West Of San Diego, Ca
  • Tanner Bank - 121nm West Of San Diego, Ca

More Historic Weather Station data

Upgrade to MSW Pro to gain access to the past 30 days of data for over 8000 Wavebouys and Weather Stations around the globe.

Join Pro

Comparision Forecast

View Surf forecast
   
Mi 04/01 5:50  -   -   -  29 34 mph 1014.8mb 61f 60f
4:50 9.5ft 9s 7s 25 34 mph 1015.1mb 61f 60f
3:50 10ft 15s 7s 22 27 mph 1015.3mb 61f 60f
2:50  -   -   -  25 29 mph 1015.2mb 61f 60f
1:50 11ft 11s 7s 20 25 mph 1016mb 61f 60f
12:50 11.5ft 11s 7s 22 29 mph 1016.4mb 61f 60f
11:50 11.5ft 10s 7s 22 27 mph 1017mb 61f 60f
10:50 13ft 11s 7s 22 27 mph 1017mb 61f 60f
9:50 11.5ft 11s 7s 22 27 mph 1016.8mb 61f 60f
8:50  -   -   -  25 31 mph 1015.9mb 61f 60f
7:50 11.5ft 11s 7s 25 29 mph 1015.4mb 61f 60f
6:50 11ft 11s 7s 22 27 mph 1015.2mb 61f 60f
5:50 11ft 10s 7s 20 25 mph 1014.6mb 61f 60f
4:50 11ft 10s 7s 22 27 mph 1014.6mb 61f 59f
3:50 12.5ft 11s 7s 25 31 mph 1014.4mb 61f 59f
2:50 11.5ft 10s 7s 20 29 mph 1016mb 61f 59f
1:50 12.5ft 10s 7s 22 29 mph 1016.1mb 61f 60f
12:50  -   -   -  29 36 mph 1015.8mb 61f 60f
Di 03/31 11:50 13ft 9s 8s 27 34 mph 1015.6mb 61f 60f
10:50 13.5ft 9s 7s 27 31 mph 1015.3mb 61f 60f
9:50 13.5ft 9s 7s 25 31 mph 1015.7mb 61f 60f
8:50  -   -   -  27 31 mph 1015.6mb 61f 60f
7:50 12ft 10s 7s 25 31 mph 1015.1mb 61f 61f
6:50 10ft 11s 7s 25 29 mph 1015.3mb 61f 61f
5:50  -   -   -  25 29 mph 1015.2mb 61f 61f
4:50 10ft 9s 6s 22 27 mph 1015.4mb 61f 61f
3:50 10ft 9s 7s 25 31 mph 1015.7mb 61f 61f
2:50 10.5ft 9s 7s 25 29 mph 1016.4mb 61f 60f
1:50 11ft 8s 7s 25 31 mph 1017.1mb 61f 60f
12:50  -   -   -  25 31 mph 1017.7mb 61f 60f
11:50 10ft 8s 7s 27 31 mph 1017.8mb 61f 60f
10:50 11ft 14s 7s 25 29 mph 1017.8mb 61f 60f
9:50 10.5ft 14s 7s 25 29 mph 1017.2mb 61f 60f
8:50 9.5ft 14s 7s 25 29 mph 1016.7mb 61f 60f
7:50 9ft 9s 7s 25 29 mph 1016mb 61f 60f
6:50 9.5ft 13s 7s 25 27 mph 1015.3mb 61f 60f
5:50 8ft 14s 7s 22 25 mph 1015.2mb 61f 60f
4:50 8.5ft 16s 7s 20 25 mph 1015.3mb 61f 60f
3:50 8ft 13s 7s 20 22 mph 1015.7mb 61f 60f
2:50 7.5ft 15s 7s 18 22 mph 1016mb 61f 60f
1:50 8ft 15s 7s 16 18 mph 1016.5mb 61f 60f
12:50 8ft 16s 8s 16 20 mph 1017mb 61f 59f
Mo 03/30 11:50 7.5ft 16s 7s 13 16 mph 1016.6mb 61f 58f
10:50 7ft 15s 7s 16 20 mph 1016.7mb 61f 58f
9:50  -   -   -  18 22 mph 1016.7mb 61f 59f
8:50 6.5ft 16s 8s 18 22 mph 1016.1mb 61f 58f
7:50 7ft 13s 8s 16 22 mph 1015.4mb 61f 58f
6:50 7.5ft 16s 9s 13 18 mph 1015.2mb 61f 58f
5:50 7ft 16s 9s 13 18 mph 1015.2mb 61f 57f
4:50 6.5ft 16s 9s 13 18 mph 1015.4mb 62f 58f
3:50 6.5ft 15s 9s 13 18 mph 1016mb 62f 58f
2:50 6ft 16s 9s 11 16 mph 1016.4mb 62f 60f
1:50 7ft 16s 8s 9 13 mph 1017mb 62f 60f
12:50 7.5ft 15s 8s 9 11 mph 1017.7mb 61f 59f
11:50 7.5ft 15s 8s 9 11 mph 1018mb 61f 59f
10:50 7.5ft 16s 8s 4 7 mph 1018mb 61f 59f
9:50 8ft 15s 8s 9 13 mph 1017.4mb 61f 58f
8:50 8ft 16s 8s 7 9 mph 1017.1mb 61f 58f
7:50 8ft 16s 9s 11 16 mph 1016.7mb 61f 58f
6:50 7ft 16s 8s 11 16 mph 1016.1mb 61f 58f
5:50 7.5ft 16s 9s 11 16 mph 1015.8mb 61f 58f
4:50 7.5ft 16s 9s 11 16 mph 1015.8mb 61f 58f
3:50 8ft 16s 9s 11 13 mph 1016mb 61f 59f
2:50 7.5ft 16s 9s 11 16 mph 1016.3mb 61f 59f
1:50 8ft 16s 9s 9 13 mph 1016.7mb 61f 59f
12:50 8ft 16s 8s 9 13 mph 1016.8mb 61f 59f
So 03/29 11:50 7.5ft 16s 8s 11 16 mph 1016.7mb 61f 60f
10:50 8ft 11s 8s 13 18 mph 1016.8mb 61f 59f
9:50 8ft 16s 8s 13 18 mph 1016.5mb 61f 59f
8:50 8ft 17s 9s 16 20 mph 1016.1mb 61f 59f
7:50 8ft 17s 9s 16 20 mph 1015.5mb 61f 58f
6:50 7.5ft 10s 8s 13 18 mph 1015.6mb 61f 59f
5:50 8ft 17s 9s 11 18 mph 1015.5mb 62f 60f
4:50 7.5ft 15s 9s 11 13 mph 1015.8mb 62f 61f
3:50 7.5ft 16s 9s 11 16 mph 1016.1mb 62f 61f
2:50 7.5ft 17s 9s 9 13 mph 1016.5mb 63f 62f
1:50 7.5ft 10s 9s 7 11 mph 1017.2mb 62f 62f
12:50 7.5ft 11s 8s 7 9 mph 1017.9mb 62f 61f
11:50 8ft 17s 9s 4
mph
1018.3mb 62f 61f
10:50 8ft 17s 9s 4 7 mph 1018.5mb 61f 61f
9:50 7.5ft 9s 8s 7 9 mph 1018.1mb 61f 60f
8:50 8ft 17s 9s 7 9 mph 1017.7mb 61f 60f
7:50 7ft 17s 8s 9 11 mph 1017.7mb 61f 60f
6:50 7ft 10s 8s 9 11 mph 1017.1mb 61f 60f
5:50 6.5ft 15s 8s 13 16 mph 1016.9mb 61f 60f
4:50 7.5ft 17s 9s 11 13 mph 1016.7mb 61f 60f
3:50 6ft 13s 8s 11 16 mph 1017mb 61f 61f
2:50 7ft 13s 8s 11 13 mph 1017.3mb 61f 60f
1:50 7ft 16s 8s 13 16 mph 1017.9mb 61f 60f